sensor_id;sensor_type;location;lat;lon;timestamp;P1;durP1;ratioP1;P2;durP2;ratioP2
49946;SDS011;35839;48.662;13.300;2022-07-23T05:05:59;13.85;;;9.63;;
49946;SDS011;35839;48.662;13.300;2022-07-23T05:08:25;10.55;;;9.55;;
49946;SDS011;35839;48.662;13.300;2022-07-23T05:10:51;10.15;;;9.10;;
49946;SDS011;35839;48.662;13.300;2022-07-23T05:13:16;11.07;;;9.98;;
49946;SDS011;35839;48.662;13.300;2022-07-23T05:15:43;12.65;;;9.68;;
49946;SDS011;35839;48.662;13.300;2022-07-23T05:18:09;15.65;;;12.80;;
49946;SDS011;35839;48.662;13.300;2022-07-23T05:20:34;12.45;;;9.65;;
49946;SDS011;35839;48.662;13.300;2022-07-23T05:22:59;10.85;;;9.75;;
49946;SDS011;35839;48.662;13.300;2022-07-23T05:25:25;13.93;;;10.93;;
49946;SDS011;35839;48.662;13.300;2022-07-23T05:27:50;11.00;;;9.90;;
49946;SDS011;35839;48.662;13.300;2022-07-23T05:30:16;14.55;;;11.40;;
49946;SDS011;35839;48.662;13.300;2022-07-23T05:32:41;15.43;;;11.10;;
49946;SDS011;35839;48.662;13.300;2022-07-23T05:35:07;14.07;;;10.45;;
49946;SDS011;35839;48.662;13.300;2022-07-23T05:37:32;11.73;;;10.55;;
49946;SDS011;35839;48.662;13.300;2022-07-23T05:40:02;14.40;;;11.88;;
49946;SDS011;35839;48.662;13.300;2022-07-23T05:42:28;15.85;;;11.57;;
49946;SDS011;35839;48.662;13.300;2022-07-23T05:44:53;17.45;;;12.10;;
49946;SDS011;35839;48.662;13.300;2022-07-23T05:47:19;14.52;;;11.70;;
49946;SDS011;35839;48.662;13.300;2022-07-23T05:49:44;12.20;;;10.40;;
49946;SDS011;35839;48.662;13.300;2022-07-23T05:52:09;15.60;;;11.13;;
49946;SDS011;35839;48.662;13.300;2022-07-23T05:54:35;12.20;;;10.48;;
49946;SDS011;35839;48.662;13.300;2022-07-23T05:57:00;13.90;;;11.05;;
49946;SDS011;35839;48.662;13.300;2022-07-23T05:59:26;11.25;;;10.10;;
49946;SDS011;35839;48.662;13.300;2022-07-23T06:01:51;14.15;;;11.60;;
49946;SDS011;35839;48.662;13.300;2022-07-23T06:04:17;12.27;;;11.02;;
49946;SDS011;35839;48.662;13.300;2022-07-23T06:06:42;16.15;;;13.27;;
49946;SDS011;35839;48.662;13.300;2022-07-23T06:09:07;13.02;;;11.63;;
49946;SDS011;35839;48.662;13.300;2022-07-23T06:11:33;15.40;;;13.57;;
49946;SDS011;35839;48.662;13.300;2022-07-23T06:13:58;11.88;;;10.65;;
49946;SDS011;35839;48.662;13.300;2022-07-23T06:16:23;15.38;;;11.70;;
49946;SDS011;35839;48.662;13.300;2022-07-23T06:18:49;13.82;;;11.52;;
49946;SDS011;35839;48.662;13.300;2022-07-23T06:21:14;14.13;;;12.07;;
49946;SDS011;35839;48.662;13.300;2022-07-23T06:23:40;14.27;;;10.85;;
49946;SDS011;35839;48.662;13.300;2022-07-23T06:26:05;17.33;;;12.30;;
49946;SDS011;35839;48.662;13.300;2022-07-23T06:28:31;25.52;;;16.83;;
49946;SDS011;35839;48.662;13.300;2022-07-23T06:30:56;16.63;;;12.65;;
49946;SDS011;35839;48.662;13.300;2022-07-23T06:33:21;16.33;;;13.65;;
49946;SDS011;35839;48.662;13.300;2022-07-23T06:35:47;15.25;;;13.18;;
49946;SDS011;35839;48.662;13.300;2022-07-23T06:38:12;17.08;;;13.52;;
49946;SDS011;35839;48.662;13.300;2022-07-23T06:40:38;14.30;;;11.50;;
49946;SDS011;35839;48.662;13.300;2022-07-23T06:43:03;13.52;;;11.63;;
49946;SDS011;35839;48.662;13.300;2022-07-23T06:45:28;15.13;;;11.63;;
49946;SDS011;35839;48.662;13.300;2022-07-23T06:47:54;16.95;;;11.93;;
49946;SDS011;35839;48.662;13.300;2022-07-23T06:50:19;14.43;;;12.02;;
49946;SDS011;35839;48.662;13.300;2022-07-23T06:52:45;14.85;;;11.55;;
49946;SDS011;35839;48.662;13.300;2022-07-23T06:55:11;11.93;;;10.50;;
49946;SDS011;35839;48.662;13.300;2022-07-23T06:57:36;14.23;;;12.25;;
49946;SDS011;35839;48.662;13.300;2022-07-23T07:00:02;15.77;;;11.40;;
49946;SDS011;35839;48.662;13.300;2022-07-23T07:02:28;12.73;;;10.90;;
49946;SDS011;35839;48.662;13.300;2022-07-23T07:04:53;16.38;;;11.65;;
49946;SDS011;35839;48.662;13.300;2022-07-23T07:07:21;85.72;;;17.73;;
49946;SDS011;35839;48.662;13.300;2022-07-23T07:09:46;23.95;;;15.73;;
49946;SDS011;35839;48.662;13.300;2022-07-23T07:12:12;16.83;;;13.38;;
49946;SDS011;35839;48.662;13.300;2022-07-23T07:14:37;20.83;;;13.45;;
49946;SDS011;35839;48.662;13.300;2022-07-23T07:17:02;17.17;;;15.38;;
49946;SDS011;35839;48.662;13.300;2022-07-23T07:19:28;15.80;;;12.27;;
49946;SDS011;35839;48.662;13.300;2022-07-23T07:21:53;18.65;;;14.18;;
49946;SDS011;35839;48.662;13.300;2022-07-23T07:24:19;34.05;;;21.02;;
49946;SDS011;35839;48.662;13.300;2022-07-23T07:26:44;27.08;;;19.88;;
49946;SDS011;35839;48.662;13.300;2022-07-23T07:29:09;20.77;;;15.00;;
49946;SDS011;35839;48.662;13.300;2022-07-23T07:31:35;17.35;;;13.02;;
49946;SDS011;35839;48.662;13.300;2022-07-23T07:34:00;15.35;;;13.40;;
49946;SDS011;35839;48.662;13.300;2022-07-23T07:36:25;12.20;;;10.98;;
49946;SDS011;35839;48.662;13.300;2022-07-23T07:38:51;13.20;;;11.80;;
49946;SDS011;35839;48.662;13.300;2022-07-23T07:41:16;13.45;;;12.07;;
49946;SDS011;35839;48.662;13.300;2022-07-23T07:43:42;13.10;;;11.13;;
49946;SDS011;35839;48.662;13.300;2022-07-23T07:46:07;12.35;;;10.35;;
49946;SDS011;35839;48.662;13.300;2022-07-23T07:48:36;19.40;;;10.57;;
49946;SDS011;35839;48.662;13.300;2022-07-23T07:51:03;13.30;;;10.90;;
49946;SDS011;35839;48.662;13.300;2022-07-23T07:53:29;13.23;;;10.60;;
49946;SDS011;35839;48.662;13.300;2022-07-23T07:55:54;11.90;;;10.10;;
49946;SDS011;35839;48.662;13.300;2022-07-23T07:58:20;11.95;;;10.75;;
49946;SDS011;35839;48.662;13.300;2022-07-23T08:00:45;11.75;;;10.30;;
49946;SDS011;35839;48.662;13.300;2022-07-23T08:03:11;19.38;;;11.20;;
49946;SDS011;35839;48.662;13.300;2022-07-23T08:05:36;13.57;;;10.13;;
49946;SDS011;35839;48.662;13.300;2022-07-23T08:08:02;12.57;;;9.35;;
49946;SDS011;35839;48.662;13.300;2022-07-23T08:10:27;15.20;;;8.13;;
49946;SDS011;35839;48.662;13.300;2022-07-23T08:12:54;17.45;;;10.07;;
49946;SDS011;35839;48.662;13.300;2022-07-23T08:15:26;11.98;;;9.23;;
49946;SDS011;35839;48.662;13.300;2022-07-23T08:17:53;11.57;;;9.13;;
49946;SDS011;35839;48.662;13.300;2022-07-23T08:20:20;6.25;;;4.97;;
49946;SDS011;35839;48.662;13.300;2022-07-23T08:25:12;14.52;;;7.93;;
49946;SDS011;35839;48.662;13.300;2022-07-23T08:27:39;8.40;;;5.95;;
49946;SDS011;35839;48.662;13.300;2022-07-23T08:30:05;6.68;;;4.95;;
49946;SDS011;35839;48.662;13.300;2022-07-23T08:32:31;9.00;;;4.97;;
49946;SDS011;35839;48.662;13.300;2022-07-23T08:34:56;5.65;;;4.28;;
49946;SDS011;35839;48.662;13.300;2022-07-23T08:37:21;5.82;;;4.80;;
49946;SDS011;35839;48.662;13.300;2022-07-23T08:39:47;4.95;;;4.47;;
49946;SDS011;35839;48.662;13.300;2022-07-23T08:42:13;5.47;;;4.07;;
49946;SDS011;35839;48.662;13.300;2022-07-23T08:44:39;5.72;;;4.32;;
49946;SDS011;35839;48.662;13.300;2022-07-23T08:47:09;6.10;;;4.00;;
49946;SDS011;35839;48.662;13.300;2022-07-23T08:49:35;6.93;;;4.10;;
49946;SDS011;35839;48.662;13.300;2022-07-23T08:52:00;5.80;;;3.47;;
49946;SDS011;35839;48.662;13.300;2022-07-23T08:54:26;4.85;;;3.90;;
49946;SDS011;35839;48.662;13.300;2022-07-23T08:56:51;4.68;;;3.65;;
49946;SDS011;35839;48.662;13.300;2022-07-23T08:59:17;6.45;;;3.47;;
49946;SDS011;35839;48.662;13.300;2022-07-23T09:01:42;4.15;;;3.63;;
49946;SDS011;35839;48.662;13.300;2022-07-23T09:04:08;4.43;;;3.67;;
49946;SDS011;35839;48.662;13.300;2022-07-23T09:06:33;4.38;;;3.92;;
49946;SDS011;35839;48.662;13.300;2022-07-23T09:08:58;7.72;;;4.50;;
49946;SDS011;35839;48.662;13.300;2022-07-23T09:11:45;5.22;;;3.75;;
49946;SDS011;35839;48.662;13.300;2022-07-23T09:14:12;3.40;;;3.08;;
49946;SDS011;35839;48.662;13.300;2022-07-23T09:16:37;6.22;;;3.60;;
49946;SDS011;35839;48.662;13.300;2022-07-23T09:19:04;5.97;;;4.10;;
49946;SDS011;35839;48.662;13.300;2022-07-23T09:24:04;7.20;;;4.65;;
49946;SDS011;35839;48.662;13.300;2022-07-23T09:31:54;3.85;;;3.53;;
49946;SDS011;35839;48.662;13.300;2022-07-23T09:34:24;4.60;;;3.53;;
49946;SDS011;35839;48.662;13.300;2022-07-23T09:39:35;4.78;;;4.05;;
49946;SDS011;35839;48.662;13.300;2022-07-23T09:44:46;11.10;;;7.68;;
49946;SDS011;35839;48.662;13.300;2022-07-23T09:47:13;27.00;;;21.20;;
49946;SDS011;35839;48.662;13.300;2022-07-23T09:49:39;7.05;;;5.68;;
49946;SDS011;35839;48.662;13.300;2022-07-23T09:52:05;7.60;;;4.50;;
49946;SDS011;35839;48.662;13.300;2022-07-23T09:54:34;4.95;;;3.50;;
49946;SDS011;35839;48.662;13.300;2022-07-23T09:59:30;4.93;;;4.28;;
49946;SDS011;35839;48.662;13.300;2022-07-23T10:01:58;6.57;;;4.50;;
49946;SDS011;35839;48.662;13.300;2022-07-23T10:04:25;8.60;;;4.50;;
49946;SDS011;35839;48.662;13.300;2022-07-23T10:06:53;4.97;;;4.47;;
49946;SDS011;35839;48.662;13.300;2022-07-23T10:09:22;4.75;;;4.30;;
49946;SDS011;35839;48.662;13.300;2022-07-23T10:11:51;13.98;;;4.03;;
49946;SDS011;35839;48.662;13.300;2022-07-23T10:14:19;7.55;;;4.63;;
49946;SDS011;35839;48.662;13.300;2022-07-23T10:16:45;4.57;;;4.13;;
49946;SDS011;35839;48.662;13.300;2022-07-23T10:19:10;5.50;;;4.25;;
49946;SDS011;35839;48.662;13.300;2022-07-23T10:21:46;5.47;;;4.35;;
49946;SDS011;35839;48.662;13.300;2022-07-23T10:24:26;5.18;;;4.18;;
49946;SDS011;35839;48.662;13.300;2022-07-23T10:29:50;7.75;;;5.03;;
49946;SDS011;35839;48.662;13.300;2022-07-23T10:32:30;6.38;;;4.18;;
49946;SDS011;35839;48.662;13.300;2022-07-23T10:37:38;6.55;;;4.72;;
49946;SDS011;35839;48.662;13.300;2022-07-23T10:40:38;6.38;;;4.60;;
49946;SDS011;35839;48.662;13.300;2022-07-23T10:42:58;5.38;;;4.45;;
49946;SDS011;35839;48.662;13.300;2022-07-23T10:45:33;5.22;;;4.28;;
49946;SDS011;35839;48.662;13.300;2022-07-23T10:50:38;8.38;;;4.95;;
49946;SDS011;35839;48.662;13.300;2022-07-23T10:53:08;12.52;;;4.50;;
49946;SDS011;35839;48.662;13.300;2022-07-23T10:57:59;9.73;;;5.50;;
49946;SDS011;35839;48.662;13.300;2022-07-23T11:00:26;7.10;;;6.40;;
49946;SDS011;35839;48.662;13.300;2022-07-23T11:02:56;5.95;;;4.60;;
49946;SDS011;35839;48.662;13.300;2022-07-23T11:05:25;13.50;;;4.95;;
49946;SDS011;35839;48.662;13.300;2022-07-23T11:10:35;6.10;;;5.47;;
49946;SDS011;35839;48.662;13.300;2022-07-23T11:21:39;8.15;;;5.93;;
49946;SDS011;35839;48.662;13.300;2022-07-23T11:24:07;6.55;;;4.70;;
49946;SDS011;35839;48.662;13.300;2022-07-23T11:26:56;7.70;;;5.95;;
49946;SDS011;35839;48.662;13.300;2022-07-23T11:31:54;5.45;;;4.68;;
49946;SDS011;35839;48.662;13.300;2022-07-23T11:34:40;6.78;;;4.35;;
49946;SDS011;35839;48.662;13.300;2022-07-23T11:37:08;5.93;;;5.35;;
49946;SDS011;35839;48.662;13.300;2022-07-23T11:42:01;5.50;;;4.57;;
49946;SDS011;35839;48.662;13.300;2022-07-23T11:44:34;6.70;;;6.10;;
49946;SDS011;35839;48.662;13.300;2022-07-23T11:47:02;5.45;;;4.25;;
49946;SDS011;35839;48.662;13.300;2022-07-23T11:49:29;5.22;;;4.72;;
49946;SDS011;35839;48.662;13.300;2022-07-23T11:54:59;7.75;;;6.65;;
49946;SDS011;35839;48.662;13.300;2022-07-23T11:57:31;7.60;;;5.03;;
49946;SDS011;35839;48.662;13.300;2022-07-23T12:02:49;5.55;;;4.55;;
49946;SDS011;35839;48.662;13.300;2022-07-23T12:05:17;5.20;;;4.30;;
49946;SDS011;35839;48.662;13.300;2022-07-23T12:07:44;22.98;;;13.05;;
49946;SDS011;35839;48.662;13.300;2022-07-23T12:12:49;8.13;;;6.35;;
49946;SDS011;35839;48.662;13.300;2022-07-23T12:15:20;6.25;;;5.00;;
49946;SDS011;35839;48.662;13.300;2022-07-23T12:17:48;10.45;;;5.35;;
49946;SDS011;35839;48.662;13.300;2022-07-23T12:20:16;9.50;;;4.80;;
49946;SDS011;35839;48.662;13.300;2022-07-23T12:25:13;6.28;;;4.40;;
49946;SDS011;35839;48.662;13.300;2022-07-23T12:27:38;6.20;;;4.75;;
49946;SDS011;35839;48.662;13.300;2022-07-23T12:30:20;4.88;;;4.38;;
49946;SDS011;35839;48.662;13.300;2022-07-23T12:32:50;7.07;;;4.53;;
49946;SDS011;35839;48.662;13.300;2022-07-23T12:35:21;7.32;;;4.97;;
49946;SDS011;35839;48.662;13.300;2022-07-23T12:37:48;4.80;;;4.30;;
49946;SDS011;35839;48.662;13.300;2022-07-23T12:43:19;5.28;;;4.43;;
49946;SDS011;35839;48.662;13.300;2022-07-23T12:45:51;6.82;;;3.92;;
49946;SDS011;35839;48.662;13.300;2022-07-23T12:48:25;4.53;;;4.13;;
49946;SDS011;35839;48.662;13.300;2022-07-23T12:51:01;5.25;;;4.25;;
49946;SDS011;35839;48.662;13.300;2022-07-23T12:53:49;6.45;;;3.90;;
49946;SDS011;35839;48.662;13.300;2022-07-23T12:56:17;4.05;;;3.65;;
49946;SDS011;35839;48.662;13.300;2022-07-23T13:06:24;4.25;;;3.85;;
49946;SDS011;35839;48.662;13.300;2022-07-23T13:08:50;4.25;;;3.85;;
49946;SDS011;35839;48.662;13.300;2022-07-23T13:11:15;5.05;;;4.13;;
49946;SDS011;35839;48.662;13.300;2022-07-23T13:13:41;5.80;;;5.00;;
49946;SDS011;35839;48.662;13.300;2022-07-23T13:16:06;4.85;;;4.18;;
49946;SDS011;35839;48.662;13.300;2022-07-23T13:18:32;4.20;;;3.75;;
49946;SDS011;35839;48.662;13.300;2022-07-23T13:20:58;6.30;;;3.65;;
49946;SDS011;35839;48.662;13.300;2022-07-23T13:23:23;4.65;;;4.15;;
49946;SDS011;35839;48.662;13.300;2022-07-23T13:25:49;9.93;;;8.18;;
49946;SDS011;35839;48.662;13.300;2022-07-23T13:28:15;8.38;;;6.15;;
49946;SDS011;35839;48.662;13.300;2022-07-23T13:30:41;5.43;;;4.20;;
49946;SDS011;35839;48.662;13.300;2022-07-23T13:33:07;4.13;;;3.72;;
49946;SDS011;35839;48.662;13.300;2022-07-23T13:35:33;5.18;;;3.50;;
49946;SDS011;35839;48.662;13.300;2022-07-23T13:37:59;5.22;;;4.20;;
49946;SDS011;35839;48.662;13.300;2022-07-23T13:40:25;5.10;;;4.45;;
49946;SDS011;35839;48.662;13.300;2022-07-23T13:42:50;4.38;;;3.97;;
49946;SDS011;35839;48.662;13.300;2022-07-23T13:45:16;5.32;;;4.15;;
49946;SDS011;35839;48.662;13.300;2022-07-23T13:47:41;4.90;;;4.18;;
49946;SDS011;35839;48.662;13.300;2022-07-23T13:50:07;5.78;;;3.75;;
49946;SDS011;35839;48.662;13.300;2022-07-23T13:52:33;4.47;;;4.07;;
49946;SDS011;35839;48.662;13.300;2022-07-23T13:54:59;4.70;;;4.30;;
49946;SDS011;35839;48.662;13.300;2022-07-23T13:57:26;6.70;;;3.83;;
49946;SDS011;35839;48.662;13.300;2022-07-23T13:59:51;5.13;;;3.60;;
49946;SDS011;35839;48.662;13.300;2022-07-23T14:02:17;4.57;;;3.92;;
49946;SDS011;35839;48.662;13.300;2022-07-23T14:04:43;5.25;;;3.92;;
49946;SDS011;35839;48.662;13.300;2022-07-23T14:07:09;6.03;;;3.90;;
49946;SDS011;35839;48.662;13.300;2022-07-23T14:09:35;4.28;;;3.72;;
49946;SDS011;35839;48.662;13.300;2022-07-23T14:12:01;4.47;;;4.07;;
49946;SDS011;35839;48.662;13.300;2022-07-23T14:14:26;4.82;;;4.13;;
49946;SDS011;35839;48.662;13.300;2022-07-23T14:16:52;4.45;;;4.03;;
49946;SDS011;35839;48.662;13.300;2022-07-23T14:19:17;4.82;;;4.13;;
49946;SDS011;35839;48.662;13.300;2022-07-23T14:21:43;10.52;;;4.20;;
49946;SDS011;35839;48.662;13.300;2022-07-23T14:24:08;5.72;;;3.97;;
49946;SDS011;35839;48.662;13.300;2022-07-23T14:26:34;7.22;;;4.80;;
49946;SDS011;35839;48.662;13.300;2022-07-23T14:28:59;4.43;;;4.03;;
49946;SDS011;35839;48.662;13.300;2022-07-23T14:31:24;5.75;;;4.10;;
49946;SDS011;35839;48.662;13.300;2022-07-23T14:33:50;5.97;;;4.95;;
49946;SDS011;35839;48.662;13.300;2022-07-23T14:36:15;4.95;;;4.38;;
49946;SDS011;35839;48.662;13.300;2022-07-23T14:38:41;4.78;;;4.28;;
49946;SDS011;35839;48.662;13.300;2022-07-23T14:41:06;7.35;;;4.43;;
49946;SDS011;35839;48.662;13.300;2022-07-23T14:43:33;5.47;;;4.00;;
49946;SDS011;35839;48.662;13.300;2022-07-23T14:45:58;5.28;;;4.03;;
49946;SDS011;35839;48.662;13.300;2022-07-23T14:48:24;5.47;;;4.97;;
49946;SDS011;35839;48.662;13.300;2022-07-23T14:50:49;4.85;;;4.43;;
49946;SDS011;35839;48.662;13.300;2022-07-23T14:53:15;4.93;;;4.32;;
49946;SDS011;35839;48.662;13.300;2022-07-23T14:55:40;5.15;;;4.20;;
49946;SDS011;35839;48.662;13.300;2022-07-23T14:58:06;6.43;;;5.47;;
49946;SDS011;35839;48.662;13.300;2022-07-23T15:00:31;7.28;;;4.00;;
49946;SDS011;35839;48.662;13.300;2022-07-23T15:02:56;6.60;;;4.63;;
49946;SDS011;35839;48.662;13.300;2022-07-23T15:05:22;4.88;;;4.38;;
49946;SDS011;35839;48.662;13.300;2022-07-23T15:07:48;6.32;;;4.85;;
49946;SDS011;35839;48.662;13.300;2022-07-23T15:10:13;6.65;;;4.82;;
49946;SDS011;35839;48.662;13.300;2022-07-23T15:12:38;8.15;;;4.30;;
49946;SDS011;35839;48.662;13.300;2022-07-23T15:15:04;4.53;;;4.03;;
49946;SDS011;35839;48.662;13.300;2022-07-23T15:17:31;6.93;;;4.70;;
49946;SDS011;35839;48.662;13.300;2022-07-23T15:19:57;6.22;;;5.57;;
49946;SDS011;35839;48.662;13.300;2022-07-23T15:22:23;6.15;;;5.03;;
49946;SDS011;35839;48.662;13.300;2022-07-23T15:24:48;8.88;;;5.68;;
49946;SDS011;35839;48.662;13.300;2022-07-23T15:27:14;6.70;;;5.65;;
49946;SDS011;35839;48.662;13.300;2022-07-23T15:29:41;7.35;;;5.80;;
49946;SDS011;35839;48.662;13.300;2022-07-23T15:32:06;6.32;;;5.72;;
49946;SDS011;35839;48.662;13.300;2022-07-23T15:34:32;10.93;;;5.78;;
49946;SDS011;35839;48.662;13.300;2022-07-23T15:37:00;7.07;;;6.10;;
49946;SDS011;35839;48.662;13.300;2022-07-23T15:39:26;10.05;;;6.03;;
49946;SDS011;35839;48.662;13.300;2022-07-23T15:41:51;6.50;;;5.88;;
49946;SDS011;35839;48.662;13.300;2022-07-23T15:44:17;8.07;;;5.22;;
49946;SDS011;35839;48.662;13.300;2022-07-23T15:46:42;6.80;;;6.10;;
49946;SDS011;35839;48.662;13.300;2022-07-23T15:49:07;7.03;;;5.70;;
49946;SDS011;35839;48.662;13.300;2022-07-23T15:51:33;8.50;;;5.25;;
49946;SDS011;35839;48.662;13.300;2022-07-23T15:53:59;5.93;;;5.40;;
49946;SDS011;35839;48.662;13.300;2022-07-23T15:56:24;7.25;;;5.15;;
49946;SDS011;35839;48.662;13.300;2022-07-23T15:58:50;8.43;;;5.97;;
49946;SDS011;35839;48.662;13.300;2022-07-23T16:01:15;6.05;;;5.10;;
49946;SDS011;35839;48.662;13.300;2022-07-23T16:03:40;6.38;;;5.53;;
49946;SDS011;35839;48.662;13.300;2022-07-23T16:06:06;9.40;;;5.57;;
49946;SDS011;35839;48.662;13.300;2022-07-23T16:08:32;8.20;;;5.80;;
49946;SDS011;35839;48.662;13.300;2022-07-23T16:10:58;5.90;;;4.97;;
49946;SDS011;35839;48.662;13.300;2022-07-23T16:13:24;5.95;;;4.93;;
49946;SDS011;35839;48.662;13.300;2022-07-23T16:15:51;5.95;;;5.25;;
49946;SDS011;35839;48.662;13.300;2022-07-23T16:18:18;6.20;;;4.97;;
49946;SDS011;35839;48.662;13.300;2022-07-23T16:20:44;6.72;;;5.57;;
49946;SDS011;35839;48.662;13.300;2022-07-23T16:23:10;7.78;;;5.80;;
49946;SDS011;35839;48.662;13.300;2022-07-23T16:25:35;8.65;;;5.18;;
49946;SDS011;35839;48.662;13.300;2022-07-23T16:28:01;6.55;;;5.50;;
49946;SDS011;35839;48.662;13.300;2022-07-23T16:30:26;6.00;;;5.40;;
49946;SDS011;35839;48.662;13.300;2022-07-23T16:32:52;5.47;;;4.97;;
49946;SDS011;35839;48.662;13.300;2022-07-23T16:35:17;7.07;;;5.22;;
49946;SDS011;35839;48.662;13.300;2022-07-23T16:37:42;6.85;;;6.15;;
49946;SDS011;35839;48.662;13.300;2022-07-23T16:40:08;6.97;;;6.00;;
49946;SDS011;35839;48.662;13.300;2022-07-23T16:42:35;8.73;;;4.43;;
49946;SDS011;35839;48.662;13.300;2022-07-23T16:45:01;5.07;;;2.92;;
49946;SDS011;35839;48.662;13.300;2022-07-23T16:47:27;21.20;;;4.53;;
49946;SDS011;35839;48.662;13.300;2022-07-23T16:49:53;8.98;;;2.85;;
49946;SDS011;35839;48.662;13.300;2022-07-23T16:52:20;9.47;;;4.87;;
49946;SDS011;35839;48.662;13.300;2022-07-23T16:54:46;5.00;;;2.65;;
49946;SDS011;35839;48.662;13.300;2022-07-23T16:57:11;5.63;;;2.03;;
49946;SDS011;35839;48.662;13.300;2022-07-23T16:59:37;5.05;;;2.40;;
49946;SDS011;35839;48.662;13.300;2022-07-23T17:02:02;7.35;;;2.30;;
49946;SDS011;35839;48.662;13.300;2022-07-23T17:04:28;5.15;;;2.35;;
49946;SDS011;35839;48.662;13.300;2022-07-23T17:06:54;3.80;;;1.90;;
49946;SDS011;35839;48.662;13.300;2022-07-23T17:09:19;2.35;;;1.65;;
49946;SDS011;35839;48.662;13.300;2022-07-23T17:11:44;4.18;;;2.35;;
49946;SDS011;35839;48.662;13.300;2022-07-23T17:14:10;4.18;;;1.67;;
49946;SDS011;35839;48.662;13.300;2022-07-23T17:16:35;3.53;;;2.08;;
49946;SDS011;35839;48.662;13.300;2022-07-23T17:19:02;2.25;;;1.98;;
49946;SDS011;35839;48.662;13.300;2022-07-23T17:21:29;4.90;;;1.95;;
49946;SDS011;35839;48.662;13.300;2022-07-23T17:23:54;3.17;;;1.90;;
49946;SDS011;35839;48.662;13.300;2022-07-23T17:26:20;6.03;;;1.75;;
49946;SDS011;35839;48.662;13.300;2022-07-23T17:28:45;4.78;;;2.10;;
49946;SDS011;35839;48.662;13.300;2022-07-23T17:31:10;6.97;;;2.58;;
49946;SDS011;35839;48.662;13.300;2022-07-23T17:33:36;8.25;;;1.67;;
49946;SDS011;35839;48.662;13.300;2022-07-23T17:36:02;3.65;;;2.05;;
49946;SDS011;35839;48.662;13.300;2022-07-23T17:38:28;5.97;;;2.03;;
49946;SDS011;35839;48.662;13.300;2022-07-23T17:40:54;3.53;;;2.30;;
49946;SDS011;35839;48.662;13.300;2022-07-23T17:43:19;3.50;;;2.58;;
49946;SDS011;35839;48.662;13.300;2022-07-23T17:45:45;3.85;;;2.40;;
49946;SDS011;35839;48.662;13.300;2022-07-23T17:48:10;5.85;;;2.38;;
49946;SDS011;35839;48.662;13.300;2022-07-23T17:50:37;3.78;;;2.53;;
49946;SDS011;35839;48.662;13.300;2022-07-23T17:53:02;4.47;;;2.53;;
49946;SDS011;35839;48.662;13.300;2022-07-23T17:55:30;5.45;;;2.28;;
49946;SDS011;35839;48.662;13.300;2022-07-23T17:57:57;5.10;;;2.40;;
49946;SDS011;35839;48.662;13.300;2022-07-23T18:00:25;4.22;;;2.60;;
49946;SDS011;35839;48.662;13.300;2022-07-23T18:02:53;5.85;;;2.70;;
49946;SDS011;35839;48.662;13.300;2022-07-23T18:05:19;4.15;;;2.40;;
49946;SDS011;35839;48.662;13.300;2022-07-23T18:07:45;3.15;;;2.30;;
49946;SDS011;35839;48.662;13.300;2022-07-23T18:10:10;4.03;;;2.50;;
49946;SDS011;35839;48.662;13.300;2022-07-23T18:12:36;4.45;;;2.92;;
49946;SDS011;35839;48.662;13.300;2022-07-23T18:15:03;5.82;;;2.92;;
49946;SDS011;35839;48.662;13.300;2022-07-23T18:17:29;7.80;;;2.50;;
49946;SDS011;35839;48.662;13.300;2022-07-23T18:19:54;4.63;;;2.70;;
49946;SDS011;35839;48.662;13.300;2022-07-23T18:22:20;4.30;;;2.80;;
49946;SDS011;35839;48.662;13.300;2022-07-23T18:24:45;4.65;;;2.80;;
49946;SDS011;35839;48.662;13.300;2022-07-23T18:27:10;5.55;;;2.88;;
49946;SDS011;35839;48.662;13.300;2022-07-23T18:29:36;4.78;;;2.85;;
49946;SDS011;35839;48.662;13.300;2022-07-23T18:32:01;5.47;;;2.90;;
49946;SDS011;35839;48.662;13.300;2022-07-23T18:34:27;5.22;;;2.67;;
49946;SDS011;35839;48.662;13.300;2022-07-23T18:36:53;5.70;;;2.88;;
49946;SDS011;35839;48.662;13.300;2022-07-23T18:39:19;8.20;;;3.33;;
49946;SDS011;35839;48.662;13.300;2022-07-23T18:41:44;5.43;;;2.85;;
49946;SDS011;35839;48.662;13.300;2022-07-23T18:44:10;4.10;;;2.85;;
49946;SDS011;35839;48.662;13.300;2022-07-23T18:46:35;3.97;;;2.80;;
49946;SDS011;35839;48.662;13.300;2022-07-23T18:49:01;3.20;;;2.42;;
49946;SDS011;35839;48.662;13.300;2022-07-23T18:51:26;4.82;;;2.80;;
49946;SDS011;35839;48.662;13.300;2022-07-23T18:53:52;2.97;;;2.53;;
49946;SDS011;35839;48.662;13.300;2022-07-23T18:56:18;4.95;;;2.88;;
49946;SDS011;35839;48.662;13.300;2022-07-23T18:58:44;4.70;;;3.20;;
49946;SDS011;35839;48.662;13.300;2022-07-23T19:01:09;5.68;;;3.17;;
49946;SDS011;35839;48.662;13.300;2022-07-23T19:03:37;5.78;;;3.28;;
49946;SDS011;35839;48.662;13.300;2022-07-23T19:06:02;3.97;;;2.95;;
49946;SDS011;35839;48.662;13.300;2022-07-23T19:08:28;4.90;;;2.80;;
49946;SDS011;35839;48.662;13.300;2022-07-23T19:10:53;3.95;;;3.38;;
49946;SDS011;35839;48.662;13.300;2022-07-23T19:13:19;4.07;;;2.88;;
49946;SDS011;35839;48.662;13.300;2022-07-23T19:15:44;3.78;;;2.92;;
49946;SDS011;35839;48.662;13.300;2022-07-23T19:18:11;3.65;;;3.25;;
49946;SDS011;35839;48.662;13.300;2022-07-23T19:20:37;8.32;;;5.10;;
49946;SDS011;35839;48.662;13.300;2022-07-23T19:23:02;4.90;;;3.63;;
49946;SDS011;35839;48.662;13.300;2022-07-23T19:25:28;5.13;;;3.92;;
49946;SDS011;35839;48.662;13.300;2022-07-23T19:27:54;4.45;;;3.58;;
49946;SDS011;35839;48.662;13.300;2022-07-23T19:30:19;5.03;;;3.63;;
49946;SDS011;35839;48.662;13.300;2022-07-23T19:32:45;4.57;;;3.78;;
49946;SDS011;35839;48.662;13.300;2022-07-23T19:35:10;4.35;;;3.65;;
49946;SDS011;35839;48.662;13.300;2022-07-23T19:37:36;4.90;;;3.55;;
49946;SDS011;35839;48.662;13.300;2022-07-23T19:40:02;6.28;;;4.43;;
49946;SDS011;35839;48.662;13.300;2022-07-23T19:42:31;4.90;;;3.45;;
49946;SDS011;35839;48.662;13.300;2022-07-23T19:44:56;4.70;;;3.60;;
49946;SDS011;35839;48.662;13.300;2022-07-23T19:47:21;6.97;;;3.67;;
49946;SDS011;35839;48.662;13.300;2022-07-23T19:49:47;4.35;;;3.58;;
49946;SDS011;35839;48.662;13.300;2022-07-23T19:52:12;3.33;;;3.00;;
49946;SDS011;35839;48.662;13.300;2022-07-23T19:54:38;4.40;;;3.75;;
49946;SDS011;35839;48.662;13.300;2022-07-23T19:57:03;4.43;;;3.45;;
49946;SDS011;35839;48.662;13.300;2022-07-23T19:59:29;5.55;;;4.00;;
49946;SDS011;35839;48.662;13.300;2022-07-23T20:01:54;6.93;;;5.57;;
49946;SDS011;35839;48.662;13.300;2022-07-23T20:04:20;5.35;;;4.05;;
49946;SDS011;35839;48.662;13.300;2022-07-23T20:06:45;5.43;;;3.40;;
49946;SDS011;35839;48.662;13.300;2022-07-23T20:09:11;5.30;;;3.45;;
49946;SDS011;35839;48.662;13.300;2022-07-23T20:11:36;3.28;;;2.80;;
49946;SDS011;35839;48.662;13.300;2022-07-23T20:14:02;3.83;;;3.03;;
49946;SDS011;35839;48.662;13.300;2022-07-23T20:16:27;5.70;;;4.03;;
49946;SDS011;35839;48.662;13.300;2022-07-23T20:18:53;5.45;;;3.88;;
49946;SDS011;35839;48.662;13.300;2022-07-23T20:21:19;4.07;;;3.50;;
49946;SDS011;35839;48.662;13.300;2022-07-23T20:23:45;4.15;;;3.20;;
49946;SDS011;35839;48.662;13.300;2022-07-23T20:26:10;5.40;;;3.63;;
49946;SDS011;35839;48.662;13.300;2022-07-23T20:28:36;7.20;;;4.47;;
49946;SDS011;35839;48.662;13.300;2022-07-23T20:31:01;6.15;;;4.15;;
49946;SDS011;35839;48.662;13.300;2022-07-23T20:33:29;4.68;;;4.15;;
49946;SDS011;35839;48.662;13.300;2022-07-23T20:35:55;4.78;;;4.20;;